Time;durP1;ratioP1;P1;durP2;ratioP2;P2;SDS_P1;SDS_P2;PMS_P1;PMS_P2;Temp;Humidity;BMP_temperature;BMP_pressure;BME280_temperature;BME280_humidity;BME280_pressure;Samples;Min_cycle;Max_cycle;Signal;HPM_P1;HPM_P2
2022/11/10 00:02:14;;;;;;;11.17;2.60;;;12.30;99.90;;;;;;6213481;23;20027;-84
2022/11/10 00:04:58;;;;;;;13.68;2.28;;;12.30;99.90;;;;;;6213397;23;20019;-85
2022/11/10 00:07:42;;;;;;;11.57;2.80;;;12.30;99.90;;;;;;6213314;23;20443;-86
2022/11/10 00:10:27;;;;;;;12.23;2.72;;;12.30;99.90;;;;;;6213264;23;20015;-85
2022/11/10 00:13:11;;;;;;;13.00;2.10;;;12.20;99.90;;;;;;6213312;23;20019;-84
2022/11/10 00:19:01;;;;;;;10.83;2.23;;;12.20;99.90;;;;;;6213167;23;20023;-85
2022/11/10 00:21:46;;;;;;;7.80;2.40;;;12.30;99.90;;;;;;6213415;23;20062;-85
2022/11/10 00:24:30;;;;;;;10.37;2.47;;;12.30;99.90;;;;;;6213148;23;20062;-85
2022/11/10 00:27:14;;;;;;;9.10;2.20;;;12.20;99.90;;;;;;6213179;23;20027;-85
2022/11/10 00:29:59;;;;;;;11.17;2.40;;;12.20;99.90;;;;;;6213187;23;20019;-85
2022/11/10 00:32:45;;;;;;;9.53;2.23;;;12.20;99.90;;;;;;6213209;23;20015;-85
2022/11/10 00:35:29;;;;;;;11.73;2.42;;;12.20;99.90;;;;;;6213270;23;20024;-85
2022/11/10 00:38:14;;;;;;;12.60;2.57;;;12.20;99.90;;;;;;6213230;23;20027;-85
2022/11/10 00:40:59;;;;;;;15.87;3.13;;;12.20;99.90;;;;;;6213287;23;20039;-85
2022/11/10 00:43:44;;;;;;;13.02;3.50;;;12.20;99.90;;;;;;6212864;23;20024;-85
2022/11/10 00:46:28;;;;;;;12.53;2.97;;;12.20;99.90;;;;;;6213004;23;20020;-85
2022/11/10 00:49:12;;;;;;;11.90;3.30;;;12.20;99.90;;;;;;6212845;23;20015;-85
2022/11/10 00:51:56;;;;;;;11.13;2.87;;;12.20;99.90;;;;;;6213041;23;20343;-85
2022/11/10 00:54:40;;;;;;;13.95;3.80;;;12.20;99.90;;;;;;6213117;23;20019;-85
2022/11/10 00:57:24;;;;;;;11.07;3.03;;;12.10;99.90;;;;;;6212814;23;20096;-85
2022/11/10 01:00:09;;;;;;;12.27;2.40;;;12.20;99.90;;;;;;6212679;23;20474;-85
2022/11/10 01:02:53;;;;;;;9.90;2.70;;;12.10;99.90;;;;;;6213111;23;20099;-85
2022/11/10 01:05:37;;;;;;;12.20;2.77;;;12.10;99.90;;;;;;6212628;23;20023;-85
2022/11/10 01:08:22;;;;;;;9.73;2.90;;;12.10;99.90;;;;;;6190520;23;20078;-85
2022/11/10 01:11:24;;;;;;;10.50;2.80;;;12.10;99.90;;;;;;6212785;23;20067;-86
2022/11/10 01:14:09;;;;;;;11.20;2.60;;;12.10;99.90;;;;;;6212920;23;20019;-85
2022/11/10 01:16:53;;;;;;;11.93;2.70;;;12.10;99.90;;;;;;6212402;23;20036;-85
2022/11/10 01:19:37;;;;;;;13.23;3.27;;;12.10;99.90;;;;;;6212665;23;20024;-85
2022/11/10 01:22:21;;;;;;;11.27;2.70;;;12.10;99.90;;;;;;6190195;23;20055;-85
2022/11/10 01:25:06;;;;;;;10.60;2.57;;;12.10;99.90;;;;;;6190310;23;20059;-85
2022/11/10 01:27:51;;;;;;;13.13;2.63;;;12.10;99.90;;;;;;6190067;23;20019;-85
2022/11/10 01:30:35;;;;;;;12.03;3.13;;;12.10;99.90;;;;;;6212687;23;20020;-85
2022/11/10 01:33:20;;;;;;;9.73;3.07;;;12.00;99.90;;;;;;6190191;23;20390;-85
2022/11/10 01:36:06;;;;;;;14.23;3.00;;;12.00;99.90;;;;;;6190075;23;20035;-85
2022/11/10 01:38:50;;;;;;;12.57;3.77;;;12.10;99.90;;;;;;6212618;23;20024;-85
2022/11/10 01:41:34;;;;;;;12.30;3.33;;;12.10;99.90;;;;;;6212628;23;20026;-85
2022/11/10 01:44:23;;;;;;;15.47;3.73;;;12.00;99.90;;;;;;6212546;23;20051;-85
2022/11/10 01:47:07;;;;;;;14.77;4.38;;;12.10;99.90;;;;;;6189945;23;20015;-85
2022/11/10 01:49:52;;;;;;;14.30;3.67;;;12.00;99.90;;;;;;6189996;23;20411;-85
2022/11/10 01:52:36;;;;;;;12.60;3.17;;;12.00;99.90;;;;;;6212539;23;20513;-85
2022/11/10 01:55:21;;;;;;;16.00;3.00;;;12.00;99.90;;;;;;6212743;23;20572;-85
2022/11/10 01:58:06;;;;;;;13.10;3.37;;;12.00;99.90;;;;;;6212722;23;20023;-85
2022/11/10 02:00:51;;;;;;;10.97;2.73;;;12.00;99.90;;;;;;6212461;23;20023;-85
2022/11/10 02:03:55;;;;;;;13.20;2.80;;;12.00;99.90;;;;;;6212353;23;20102;-85
2022/11/10 02:06:42;;;;;;;12.43;3.33;;;12.00;99.90;;;;;;6188420;23;20083;-85
2022/11/10 02:09:26;;;;;;;13.17;3.10;;;12.00;99.90;;;;;;6210390;23;20035;-85
2022/11/10 02:12:10;;;;;;;11.13;2.70;;;12.00;99.90;;;;;;6211316;23;20015;-85
2022/11/10 02:14:55;;;;;;;12.63;3.60;;;12.00;99.90;;;;;;6212308;23;20026;-85
2022/11/10 02:17:39;;;;;;;14.93;4.13;;;12.00;99.90;;;;;;6212418;23;20023;-85
2022/11/10 02:20:24;;;;;;;11.53;4.10;;;11.90;99.90;;;;;;6212379;23;20478;-85
2022/11/10 02:23:33;;;;;;;18.70;4.17;;;11.90;99.90;;;;;;6212624;23;20023;-85
2022/11/10 02:26:22;;;;;;;;;;;11.90;99.90;;;;;;6212773;23;20110;-85
2022/11/10 02:29:06;;;;;;;;;;;11.90;99.90;;;;;;6213474;23;20289;-85
2022/11/10 02:31:51;;;;;;;16.23;3.70;;;11.90;99.90;;;;;;6214485;23;20333;-85
2022/11/10 02:34:35;;;;;;;15.23;3.00;;;11.90;99.90;;;;;;6214594;23;20023;-85
2022/11/10 02:37:19;;;;;;;12.97;3.40;;;11.90;99.90;;;;;;6214350;23;20036;-85
2022/11/10 02:40:04;;;;;;;11.17;3.27;;;11.90;99.90;;;;;;6214375;23;20028;-85
2022/11/10 02:42:49;;;;;;;15.67;3.50;;;11.90;99.90;;;;;;6214517;23;20395;-85
2022/11/10 02:45:33;;;;;;;13.03;4.20;;;11.80;99.90;;;;;;6214424;23;20075;-85
2022/11/10 02:48:18;;;;;;;18.87;5.30;;;11.90;99.90;;;;;;6214424;23;20390;-85
2022/11/10 02:51:02;;;;;;;18.13;4.43;;;11.80;99.90;;;;;;6214478;23;20020;-85
2022/11/10 02:53:46;;;;;;;13.80;3.87;;;11.80;99.90;;;;;;6191829;23;20019;-85
2022/11/10 02:56:31;;;;;;;16.03;4.10;;;11.80;99.90;;;;;;6214246;23;20036;-85
2022/11/10 02:59:15;;;;;;;10.93;3.30;;;11.80;99.90;;;;;;6214178;23;20020;-85
2022/11/10 03:02:00;;;;;;;15.03;3.40;;;11.80;99.90;;;;;;6214265;23;20063;-85
2022/11/10 03:04:44;;;;;;;17.13;3.83;;;11.80;99.90;;;;;;6214285;23;20027;-84
2022/11/10 03:07:28;;;;;;;15.33;2.87;;;11.80;99.90;;;;;;6213991;23;20020;-85
2022/11/10 03:10:12;;;;;;;15.60;3.27;;;11.70;99.90;;;;;;6214079;23;20098;-85
2022/11/10 03:15:46;;;;;;;10.70;2.33;;;11.70;99.90;;;;;;6184237;23;20506;-88
2022/11/10 03:19:03;;;;;;;6.23;2.13;;;11.70;99.90;;;;;;6184667;23;20335;-90
2022/11/10 05:13:31;;;;;;;10.17;2.50;;;11.30;99.90;;;;;;6208272;22;20805;-88
2022/11/10 05:16:16;;;;;;;13.30;2.80;;;11.30;99.90;;;;;;6244795;23;20058;-88
2022/11/10 05:19:01;;;;;;;12.67;2.73;;;11.30;99.90;;;;;;6220811;23;20022;-86
2022/11/10 05:21:45;;;;;;;11.90;2.83;;;11.30;99.90;;;;;;6220220;23;20052;-87
2022/11/10 05:24:29;;;;;;;12.70;3.03;;;11.40;99.90;;;;;;6233149;23;20022;-89
2022/11/10 05:27:56;;;;;;;15.60;2.73;;;11.30;99.90;;;;;;6243734;23;20015;-87
2022/11/10 05:31:04;;;;;;;16.43;3.20;;;11.40;99.90;;;;;;6240946;23;20047;-88
2022/11/10 05:34:23;;;;;;;;;;;;;;;;;;;;;
2022/11/10 05:37:20;;;;;;;17.77;3.50;;;11.30;99.90;;;;;;6244004;23;20497;-87
2022/11/10 05:40:05;;;;;;;14.10;2.80;;;11.30;99.90;;;;;;6242808;23;20121;-89
2022/11/10 05:42:52;;;;;;;14.37;3.53;;;11.30;99.90;;;;;;6241581;23;20031;-87
2022/11/10 05:45:36;;;;;;;18.63;3.77;;;11.30;99.90;;;;;;6241526;23;20019;-87
2022/11/10 05:48:21;;;;;;;20.73;3.50;;;11.30;99.90;;;;;;6243233;23;20744;-86
2022/11/10 05:51:06;;;;;;;14.93;3.00;;;11.40;99.90;;;;;;6241299;23;20019;-89
2022/11/10 05:53:50;;;;;;;13.13;3.20;;;11.50;99.90;;;;;;6241066;23;20067;-86
2022/11/10 05:56:35;;;;;;;12.23;3.17;;;11.50;99.90;;;;;;6241575;23;20023;-89
2022/11/10 05:59:19;;;;;;;15.53;3.57;;;11.50;99.90;;;;;;6240228;23;20031;-87
2022/11/10 06:02:04;;;;;;;14.33;2.80;;;11.40;99.90;;;;;;6242773;23;20020;-87
2022/11/10 06:04:50;;;;;;;15.63;2.97;;;11.40;99.90;;;;;;6244243;23;20039;-88
2022/11/10 06:08:11;;;;;;;13.43;2.83;;;11.40;99.90;;;;;;6244976;23;20085;-92
2022/11/10 06:13:37;;;;;;;15.93;3.60;;;11.30;99.90;;;;;;6218507;22;20117;-85
2022/11/10 06:16:25;;;;;;;18.37;3.57;;;11.30;99.90;;;;;;6244345;23;20022;-87
2022/11/10 06:26:31;;;;;;;12.03;2.80;;;11.30;99.90;;;;;;6235872;22;20531;-89
2022/11/10 06:29:30;;;;;;;24.40;3.17;;;11.30;99.90;;;;;;6094739;23;20073;-88
2022/11/10 06:32:43;;;;;;;;;;;11.20;99.90;;;;;;6047956;23;20418;-89
2022/11/10 06:35:37;;;;;;;10.90;2.50;;;11.20;99.90;;;;;;6093169;23;19980;-92
2022/11/10 06:38:21;;;;;;;11.10;2.57;;;11.20;99.90;;;;;;6095332;23;20077;-84
2022/11/10 07:42:39;;;;;;;9.82;2.33;;;11.10;99.90;;;;;;6214649;22;20043;-88
2022/11/10 07:58:43;;;;;;;11.07;2.30;;;11.20;99.90;;;;;;6183801;23;20163;-89
2022/11/10 08:02:16;;;;;;;16.97;3.20;;;11.20;99.90;;;;;;6194087;22;20027;-89
2022/11/10 08:05:03;;;;;;;11.47;2.47;;;11.20;99.90;;;;;;6241294;23;20069;-88
2022/11/10 08:08:12;;;;;;;11.73;2.40;;;11.30;99.90;;;;;;6206607;22;20072;-88
2022/11/10 08:11:15;;;;;;;12.10;2.77;;;11.30;99.90;;;;;;6213562;23;20019;-90
2022/11/10 08:20:25;;;;;;;19.07;3.47;;;11.40;99.90;;;;;;6178270;23;20029;-88
2022/11/10 08:26:44;;;;;;;13.10;2.53;;;11.40;99.90;;;;;;6220492;22;20417;-87
2022/11/10 08:30:07;;;;;;;15.33;2.47;;;11.50;99.90;;;;;;6244450;23;20023;-90
2022/11/10 08:37:57;;;;;;;13.20;2.47;;;11.50;99.90;;;;;;6206688;23;20019;-88
2022/11/10 08:41:47;;;;;;;9.87;2.10;;;11.60;99.90;;;;;;6243254;23;20019;-89
2022/11/10 08:48:14;;;;;;;;;;;;;;;;;;;;;
2022/11/10 08:51:38;;;;;;;18.17;3.00;;;11.70;99.90;;;;;;6244128;23;20019;-94
2022/11/10 08:54:44;;;;;;;13.43;2.57;;;11.70;99.90;;;;;;6205180;22;20027;-91
2022/11/10 08:57:49;;;;;;;13.77;2.93;;;11.70;99.90;;;;;;6244915;23;20096;-92
2022/11/10 09:00:59;;;;;;;17.07;2.90;;;11.80;99.90;;;;;;6247186;23;20023;-91
2022/11/10 09:09:31;;;;;;;12.17;2.27;;;11.80;99.90;;;;;;6232636;22;20044;-90
2022/11/10 09:12:26;;;;;;;14.63;2.57;;;11.90;99.90;;;;;;6172983;23;20026;-87
2022/11/10 10:33:49;;;;;;;16.15;2.88;;;13.00;99.90;;;;;;6187101;23;20043;-87
2022/11/10 10:36:33;;;;;;;12.15;2.72;;;13.10;99.90;;;;;;6206312;23;20348;-82
2022/11/10 11:05:34;;;;;;;13.98;2.45;;;13.40;99.90;;;;;;6187192;23;20039;-89
2022/11/10 11:09:10;;;;;;;;;;;;;;;;;;;;;
2022/11/10 11:13:07;;;;;;;19.63;2.50;;;13.50;99.90;;;;;;6183267;23;20060;-90
2022/11/10 11:16:15;;;;;;;12.40;2.50;;;13.50;99.90;;;;;;6091725;23;20190;-89
2022/11/10 11:19:29;;;;;;;;;;;;;;;;;;;;;
2022/11/10 11:22:58;;;;;;;13.13;2.80;;;13.60;99.90;;;;;;6183036;23;20063;-89
2022/11/10 11:25:52;;;;;;;14.75;2.80;;;13.60;99.90;;;;;;6093355;23;20077;-89
2022/11/10 11:34:16;;;;;;;13.27;2.63;;;13.70;99.90;;;;;;6184549;23;20064;-88
2022/11/10 11:37:35;;;;;;;13.48;1.83;;;13.70;99.90;;;;;;6162126;23;20016;-88
2022/11/10 11:45:07;;;;;;;;;;;;;;;;;;;;;
2022/11/10 11:48:18;;;;;;;14.07;2.47;;;13.90;99.90;;;;;;6213067;23;20087;-90
2022/11/10 11:51:43;;;;;;;12.32;2.38;;;13.90;99.90;;;;;;6190558;23;20107;-89
2022/11/10 11:54:42;;;;;;;8.52;2.10;;;13.90;99.90;;;;;;6243889;23;20025;-88
2022/11/10 13:55:17;;;;;;;8.52;1.85;;;14.50;99.90;;;;;;6212696;23;20067;-89
2022/11/10 14:13:04;;;;;;;10.07;2.60;;;14.50;99.90;;;;;;6203972;23;20121;-88
2022/11/10 14:20:18;;;;;;;;;;;;;;;;;;;;;
2022/11/10 14:23:38;;;;;;;9.63;1.98;;;14.50;99.90;;;;;;6220270;23;20066;-94
2022/11/10 14:26:44;;;;;;;9.73;2.40;;;14.50;99.90;;;;;;6222044;23;20082;-88
2022/11/10 14:29:39;;;;;;;7.50;1.70;;;14.50;99.90;;;;;;6244130;23;20047;-88
2022/11/10 14:32:25;;;;;;;13.75;1.65;;;14.50;99.90;;;;;;6244610;23;20062;-87
2022/11/10 14:35:31;;;;;;;9.05;1.50;;;14.50;99.90;;;;;;6222162;23;20022;-88
2022/11/10 14:42:16;;;;;;;14.25;2.28;;;14.40;99.90;;;;;;6212657;23;20043;-95
2022/11/10 14:45:34;;;;;;;8.98;2.00;;;14.40;99.90;;;;;;6214169;23;20019;-87
2022/11/10 15:18:54;;;;;;;5.80;1.70;;;14.20;99.90;;;;;;6213209;23;20028;-92
2022/11/10 15:22:47;;;;;;;6.40;1.90;;;14.10;99.90;;;;;;6183189;23;20075;-88
2022/11/10 15:26:06;;;;;;;12.88;4.13;;;14.10;99.90;;;;;;6165505;23;20068;-88
2022/11/10 15:29:38;;;;;;;;;;;;;;;;;;;;;
2022/11/10 15:51:10;;;;;;;;;;;;;;;;;;;;;
2022/11/10 15:54:22;;;;;;;;;;;;;;;;;;;;;
2022/11/10 15:57:23;;;;;;;;;;;;;;;;;;;;;
2022/11/10 16:00:36;;;;;;;;;;;;;;;;;;;;;
2022/11/10 16:03:50;;;;;;;10.30;3.50;;;13.70;99.90;;;;;;6243362;23;20095;-88
2022/11/10 16:07:25;;;;;;;;;;;;;;;;;;;;;
2022/11/10 16:11:14;;;;;;;8.48;3.00;;;13.70;99.90;;;;;;6242952;23;20020;-87
2022/11/10 16:18:07;;;;;;;;;;;;;;;;;;;;;
2022/11/10 16:21:31;;;;;;;;;;;;;;;;;;;;;
2022/11/10 16:24:38;;;;;;;9.95;3.13;;;13.50;99.90;;;;;;6243211;23;20546;-87
2022/11/10 16:27:52;;;;;;;9.65;3.35;;;13.50;99.90;;;;;;6242950;23;20069;-87
2022/11/10 16:30:37;;;;;;;8.25;2.35;;;13.40;99.90;;;;;;6242550;23;20019;-85
2022/11/10 16:33:23;;;;;;;6.47;1.50;;;13.40;99.90;;;;;;6243768;23;20054;-83
2022/11/10 16:36:33;;;;;;;4.82;1.65;;;13.40;99.90;;;;;;6243579;23;20076;-85
2022/11/10 16:39:17;;;;;;;9.68;2.35;;;13.40;99.90;;;;;;6243721;23;20064;-85
2022/11/10 16:42:34;;;;;;;6.82;2.00;;;13.40;99.90;;;;;;6245058;23;20406;-90
2022/11/10 16:48:05;;;;;;;10.40;2.10;;;13.40;99.90;;;;;;6160454;23;20096;-86
2022/11/10 16:50:50;;;;;;;;;;;13.40;99.90;;;;;;6176397;23;20363;-87
2022/11/10 16:53:43;;;;;;;7.50;1.88;;;13.40;99.90;;;;;;6183670;23;19919;-86
2022/11/10 16:56:29;;;;;;;9.93;2.40;;;13.30;99.90;;;;;;6185019;23;20019;-88
2022/11/10 16:59:17;;;;;;;9.43;1.73;;;13.30;99.90;;;;;;6183693;23;20020;-85
2022/11/10 17:02:40;;;;;;;8.63;2.78;;;13.30;99.90;;;;;;6183930;23;20076;-90
2022/11/10 17:05:55;;;;;;;7.35;2.72;;;13.30;99.90;;;;;;6042770;23;20422;-88
2022/11/10 17:09:16;;;;;;;9.25;2.53;;;13.30;99.90;;;;;;6042613;23;20021;-90
2022/11/10 17:12:14;;;;;;;9.75;2.25;;;13.30;99.90;;;;;;6182959;23;20095;-88
2022/11/10 17:14:58;;;;;;;7.20;1.90;;;13.20;99.90;;;;;;6160498;23;20071;-87
2022/11/10 17:17:45;;;;;;;7.70;2.03;;;13.20;99.90;;;;;;6160869;23;20144;-87
2022/11/10 17:20:38;;;;;;;9.07;1.80;;;13.20;99.90;;;;;;6160631;23;20052;-86
2022/11/10 17:23:24;;;;;;;10.40;2.00;;;13.20;99.90;;;;;;6184548;23;20043;-86
2022/11/10 17:26:14;;;;;;;10.23;2.00;;;13.20;99.90;;;;;;6182636;23;20024;-86
2022/11/10 17:32:00;;;;;;;5.78;1.70;;;13.20;99.90;;;;;;6182203;23;20060;-88
2022/11/10 17:34:45;;;;;;;7.30;1.65;;;13.10;99.90;;;;;;6190843;23;20063;-88
2022/11/10 17:37:30;;;;;;;7.57;1.85;;;13.10;99.90;;;;;;6212644;23;20400;-85
2022/11/10 17:40:21;;;;;;;5.65;1.75;;;13.20;99.90;;;;;;6228363;23;20019;-85
2022/11/10 17:43:07;;;;;;;6.68;1.67;;;13.20;99.90;;;;;;6220419;23;20014;-84
2022/11/10 17:45:54;;;;;;;9.32;2.03;;;13.30;99.90;;;;;;6242760;23;20027;-84
2022/11/10 17:48:39;;;;;;;7.03;1.75;;;13.30;99.90;;;;;;6242769;23;20541;-85
2022/11/10 17:51:23;;;;;;;7.35;1.83;;;13.40;99.90;;;;;;6242874;23;20404;-85
2022/11/10 17:54:12;;;;;;;5.82;2.08;;;13.30;99.90;;;;;;6242992;23;20062;-85
2022/11/10 17:56:57;;;;;;;;;;;13.30;99.90;;;;;;6243549;23;20395;-84
2022/11/10 17:59:41;;;;;;;7.32;1.70;;;13.30;99.90;;;;;;6242574;23;19965;-85
2022/11/10 18:02:28;;;;;;;8.60;1.85;;;13.30;99.90;;;;;;6243078;23;20026;-86
2022/11/10 18:05:14;;;;;;;7.35;1.80;;;13.30;99.90;;;;;;6243205;23;20375;-88
2022/11/10 18:08:02;;;;;;;6.72;1.77;;;13.30;99.90;;;;;;6243397;23;20343;-87
2022/11/10 18:10:50;;;;;;;5.28;1.67;;;13.30;99.90;;;;;;6242885;23;20023;-86
2022/11/10 18:13:35;;;;;;;6.95;1.73;;;13.30;99.90;;;;;;6241273;23;20019;-87
2022/11/10 18:16:36;;;;;;;9.70;2.78;;;13.20;99.90;;;;;;6244054;23;20047;-89
2022/11/10 18:22:02;;;;;;;8.07;1.80;;;13.10;99.90;;;;;;6185360;23;20025;-88
2022/11/10 18:24:53;;;;;;;9.35;2.60;;;13.10;99.90;;;;;;6213205;23;20045;-87
2022/11/10 18:27:40;;;;;;;11.25;1.90;;;13.10;99.90;;;;;;6210980;23;20363;-88
2022/11/10 18:30:27;;;;;;;6.03;1.65;;;13.00;99.90;;;;;;6229941;23;20081;-88
2022/11/10 18:33:14;;;;;;;8.77;1.88;;;13.00;99.90;;;;;;6242452;23;20034;-86
2022/11/10 18:36:16;;;;;;;8.70;1.98;;;12.90;99.90;;;;;;6241154;23;20023;-87
2022/11/10 18:39:33;;;;;;;;;;;;;;;;;;;;;
2022/11/10 18:42:23;;;;;;;6.80;1.73;;;12.90;99.90;;;;;;6242417;23;20019;-88
2022/11/10 18:45:13;;;;;;;7.40;2.08;;;12.90;99.90;;;;;;6242414;23;20019;-88
2022/11/10 18:48:20;;;;;;;7.35;2.13;;;12.80;99.90;;;;;;6219174;23;20018;-88
2022/11/10 18:51:05;;;;;;;7.18;2.28;;;12.80;99.90;;;;;;6242742;23;20031;-87
2022/11/10 18:57:39;;;;;;;8.00;2.35;;;12.80;99.90;;;;;;6240426;23;20425;-93
2022/11/10 19:03:00;;;;;;;9.63;2.40;;;12.70;99.90;;;;;;6213453;23;20038;-89
2022/11/10 19:05:49;;;;;;;9.45;1.95;;;12.70;99.90;;;;;;6212350;23;20102;-83
2022/11/10 19:09:17;;;;;;;;;;;;;;;;;;;;;
2022/11/10 19:12:55;;;;;;;;;;;;;;;;;;;;;
2022/11/10 19:19:15;;;;;;;8.45;2.55;;;12.70;99.90;;;;;;6138217;23;20020;-87
2022/11/10 19:22:04;;;;;;;8.43;2.60;;;12.60;99.90;;;;;;6184111;23;20023;-90
2022/11/10 19:24:52;;;;;;;10.00;2.72;;;12.60;99.90;;;;;;6184351;23;20079;-84
2022/11/10 19:27:36;;;;;;;8.20;2.15;;;12.60;99.90;;;;;;6161240;23;20019;-83
2022/11/10 19:30:20;;;;;;;6.20;2.10;;;12.60;99.90;;;;;;6183357;23;20531;-83
2022/11/10 19:33:05;;;;;;;7.88;2.40;;;12.60;99.90;;;;;;6183916;23;20048;-83
2022/11/10 19:35:49;;;;;;;8.27;2.67;;;12.60;99.90;;;;;;6183833;23;20048;-82
2022/11/10 19:38:33;;;;;;;12.25;3.00;;;12.50;99.90;;;;;;6183593;23;20104;-83
2022/11/10 19:41:20;;;;;;;10.48;2.75;;;12.50;99.90;;;;;;6161572;23;20024;-83
2022/11/10 19:44:08;;;;;;;9.47;2.50;;;12.50;99.90;;;;;;6183883;23;20070;-83
2022/11/10 19:46:52;;;;;;;9.20;2.75;;;12.50;99.90;;;;;;6183710;23;20020;-82
2022/11/10 19:49:37;;;;;;;6.43;2.10;;;12.40;99.90;;;;;;6183593;23;20067;-82
2022/11/10 19:52:22;;;;;;;10.55;2.90;;;12.40;99.90;;;;;;6184007;23;20016;-81
2022/11/10 19:55:06;;;;;;;10.02;2.47;;;12.40;99.90;;;;;;6183864;23;20083;-82
2022/11/10 19:57:51;;;;;;;10.35;3.28;;;12.30;99.90;;;;;;6183919;23;20067;-82
2022/11/10 20:00:35;;;;;;;11.10;3.45;;;12.30;99.90;;;;;;6183528;23;20024;-85
2022/11/10 20:03:19;;;;;;;9.13;2.40;;;12.30;99.90;;;;;;6189306;23;20047;-86
2022/11/10 20:06:13;;;;;;;8.55;2.53;;;12.30;99.90;;;;;;6184419;23;20205;-87
2022/11/10 20:49:00;;;;;;;;;;;;;;;;;;;;;
2022/11/10 21:17:18;;;;;;;13.27;5.90;;;11.90;99.90;;;;;;6094420;23;20318;-86
2022/11/10 21:20:03;;;;;;;9.53;4.00;;;11.90;99.90;;;;;;6105766;23;20108;-86
2022/11/10 21:22:47;;;;;;;8.40;3.03;;;11.80;99.90;;;;;;6122518;23;20017;-86
2022/11/10 21:25:31;;;;;;;6.73;2.83;;;11.80;99.90;;;;;;6123888;23;20020;-86
2022/11/10 21:28:16;;;;;;;9.20;2.87;;;11.80;99.90;;;;;;6123724;23;20070;-86
2022/11/10 21:31:03;;;;;;;6.50;2.90;;;11.80;99.90;;;;;;6123625;23;20032;-86
2022/11/10 21:33:48;;;;;;;7.20;2.70;;;11.80;99.90;;;;;;6123445;23;20024;-87
2022/11/10 21:36:32;;;;;;;8.80;2.60;;;11.80;99.90;;;;;;6123468;23;20025;-88
2022/11/10 21:39:17;;;;;;;7.10;2.70;;;11.80;99.90;;;;;;6123262;23;20073;-86
2022/11/10 21:42:01;;;;;;;7.87;2.80;;;11.80;99.90;;;;;;6122619;23;20349;-87
2022/11/10 21:44:46;;;;;;;6.13;2.60;;;11.70;99.90;;;;;;6123660;23;20021;-87
2022/11/10 21:47:31;;;;;;;9.20;2.80;;;11.70;99.90;;;;;;6101604;23;20020;-86
